sensor_id;sensor_type;location;lat;lon;timestamp;pressure;altitude;pressure_sealevel;temperature;humidity
24996;BME280;13016;52.162;21.034;2023-04-05T00:03:45;101007.76;;;4.59;50.02
24996;BME280;13016;52.162;21.034;2023-04-05T00:09:46;101000.09;;;4.59;50.50
24996;BME280;13016;52.162;21.034;2023-04-05T00:15:47;101000.30;;;4.57;50.29
24996;BME280;13016;52.162;21.034;2023-04-05T00:21:47;100990.93;;;4.61;50.39
24996;BME280;13016;52.162;21.034;2023-04-05T00:27:48;100978.08;;;4.58;50.36
24996;BME280;13016;52.162;21.034;2023-04-05T00:33:48;100974.41;;;4.58;50.55
24996;BME280;13016;52.162;21.034;2023-04-05T00:39:48;100970.88;;;4.59;50.65
24996;BME280;13016;52.162;21.034;2023-04-05T00:45:49;100968.39;;;4.54;50.51
24996;BME280;13016;52.162;21.034;2023-04-05T00:51:49;100961.23;;;4.54;50.75
24996;BME280;13016;52.162;21.034;2023-04-05T00:57:50;100958.19;;;4.51;50.76
24996;BME280;13016;52.162;21.034;2023-04-05T01:03:58;100956.36;;;4.47;51.06
24996;BME280;13016;52.162;21.034;2023-04-05T01:09:59;100955.21;;;4.45;51.35
24996;BME280;13016;52.162;21.034;2023-04-05T01:15:59;100948.58;;;4.50;51.61
24996;BME280;13016;52.162;21.034;2023-04-05T01:22:14;100943.42;;;4.54;51.77
24996;BME280;13016;52.162;21.034;2023-04-05T01:28:27;100948.66;;;4.54;51.94
24996;BME280;13016;52.162;21.034;2023-04-05T01:41:11;100948.90;;;4.58;52.22
24996;BME280;13016;52.162;21.034;2023-04-05T01:47:12;100950.27;;;4.53;52.17
24996;BME280;13016;52.162;21.034;2023-04-05T01:53:12;100951.85;;;4.53;52.31
24996;BME280;13016;52.162;21.034;2023-04-05T01:59:12;100954.72;;;4.50;52.52
24996;BME280;13016;52.162;21.034;2023-04-05T02:05:13;100948.64;;;4.42;52.85
24996;BME280;13016;52.162;21.034;2023-04-05T02:11:13;100952.41;;;4.38;52.99
24996;BME280;13016;52.162;21.034;2023-04-05T02:17:13;100952.01;;;4.34;53.15
24996;BME280;13016;52.162;21.034;2023-04-05T02:23:13;100951.59;;;4.37;53.46
24996;BME280;13016;52.162;21.034;2023-04-05T02:29:14;100956.38;;;4.40;53.59
24996;BME280;13016;52.162;21.034;2023-04-05T02:35:14;100953.41;;;4.34;53.40
24996;BME280;13016;52.162;21.034;2023-04-05T02:41:14;100953.61;;;4.32;53.68
24996;BME280;13016;52.162;21.034;2023-04-05T02:47:15;100951.08;;;4.36;53.55
24996;BME280;13016;52.162;21.034;2023-04-05T02:53:16;100949.50;;;4.36;53.75
24996;BME280;13016;52.162;21.034;2023-04-05T02:59:16;100954.35;;;4.38;53.81
24996;BME280;13016;52.162;21.034;2023-04-05T03:05:16;100952.74;;;4.32;53.80
24996;BME280;13016;52.162;21.034;2023-04-05T03:11:16;100950.45;;;4.20;54.07
24996;BME280;13016;52.162;21.034;2023-04-05T03:17:17;100950.85;;;4.18;54.14
24996;BME280;13016;52.162;21.034;2023-04-05T03:23:17;100951.14;;;4.20;53.99
24996;BME280;13016;52.162;21.034;2023-04-05T03:29:17;100947.92;;;4.10;53.94
24996;BME280;13016;52.162;21.034;2023-04-05T03:35:17;100950.58;;;3.80;54.34
24996;BME280;13016;52.162;21.034;2023-04-05T03:41:18;100944.92;;;3.76;54.86
24996;BME280;13016;52.162;21.034;2023-04-05T03:47:18;100942.31;;;3.68;55.25
24996;BME280;13016;52.162;21.034;2023-04-05T03:53:18;100949.88;;;3.73;55.07
24996;BME280;13016;52.162;21.034;2023-04-05T03:59:19;100949.77;;;3.63;55.01
24996;BME280;13016;52.162;21.034;2023-04-05T04:05:19;100950.16;;;3.46;55.57
24996;BME280;13016;52.162;21.034;2023-04-05T04:11:19;100953.35;;;3.51;55.49
24996;BME280;13016;52.162;21.034;2023-04-05T04:17:33;100953.87;;;3.36;55.85
24996;BME280;13016;52.162;21.034;2023-04-05T04:23:34;100958.72;;;3.46;56.39
24996;BME280;13016;52.162;21.034;2023-04-05T04:29:37;100960.88;;;3.59;56.07
24996;BME280;13016;52.162;21.034;2023-04-05T04:35:37;100965.41;;;3.65;55.84
24996;BME280;13016;52.162;21.034;2023-04-05T04:41:38;100963.55;;;3.55;55.91
24996;BME280;13016;52.162;21.034;2023-04-05T04:47:38;100964.40;;;3.79;56.04
24996;BME280;13016;52.162;21.034;2023-04-05T04:53:38;100961.41;;;3.87;55.44
24996;BME280;13016;52.162;21.034;2023-04-05T04:59:39;100961.17;;;3.82;54.86
24996;BME280;13016;52.162;21.034;2023-04-05T05:05:43;100966.27;;;4.02;54.96
24996;BME280;13016;52.162;21.034;2023-04-05T05:11:43;100966.77;;;4.10;54.84
24996;BME280;13016;52.162;21.034;2023-04-05T05:17:44;100969.50;;;4.39;54.28
24996;BME280;13016;52.162;21.034;2023-04-05T05:23:44;100971.89;;;4.42;53.99
24996;BME280;13016;52.162;21.034;2023-04-05T05:29:44;100974.39;;;4.59;53.88
24996;BME280;13016;52.162;21.034;2023-04-05T05:35:48;100983.97;;;4.66;54.03
24996;BME280;13016;52.162;21.034;2023-04-05T05:41:49;100982.27;;;4.84;53.42
24996;BME280;13016;52.162;21.034;2023-04-05T05:47:49;100987.15;;;4.78;53.86
24996;BME280;13016;52.162;21.034;2023-04-05T05:53:49;100990.46;;;4.96;53.61
24996;BME280;13016;52.162;21.034;2023-04-05T05:59:49;100991.70;;;5.03;53.70
24996;BME280;13016;52.162;21.034;2023-04-05T06:05:51;100996.06;;;5.21;53.01
24996;BME280;13016;52.162;21.034;2023-04-05T06:11:52;100999.64;;;4.88;53.68
24996;BME280;13016;52.162;21.034;2023-04-05T06:17:52;101006.13;;;5.35;53.58
24996;BME280;13016;52.162;21.034;2023-04-05T06:23:53;101003.74;;;5.68;52.48
24996;BME280;13016;52.162;21.034;2023-04-05T06:29:53;101009.10;;;5.75;52.12
24996;BME280;13016;52.162;21.034;2023-04-05T06:35:53;101008.17;;;5.89;51.84
24996;BME280;13016;52.162;21.034;2023-04-05T06:41:53;101009.95;;;5.78;51.58
24996;BME280;13016;52.162;21.034;2023-04-05T06:47:54;101010.09;;;5.78;51.82
24996;BME280;13016;52.162;21.034;2023-04-05T06:53:54;101013.93;;;5.96;51.48
24996;BME280;13016;52.162;21.034;2023-04-05T06:59:55;101017.38;;;5.97;51.50
24996;BME280;13016;52.162;21.034;2023-04-05T07:05:57;101015.50;;;6.23;50.96
24996;BME280;13016;52.162;21.034;2023-04-05T07:11:58;101022.39;;;6.26;50.63
24996;BME280;13016;52.162;21.034;2023-04-05T07:17:58;101026.98;;;6.41;50.51
24996;BME280;13016;52.162;21.034;2023-04-05T07:23:59;101028.44;;;6.49;50.54
24996;BME280;13016;52.162;21.034;2023-04-05T07:29:59;101029.77;;;6.51;50.31
24996;BME280;13016;52.162;21.034;2023-04-05T07:35:59;101028.44;;;6.60;50.51
24996;BME280;13016;52.162;21.034;2023-04-05T07:42:00;101030.96;;;6.73;50.18
24996;BME280;13016;52.162;21.034;2023-04-05T07:48:00;101032.45;;;6.70;49.62
24996;BME280;13016;52.162;21.034;2023-04-05T07:54:00;101033.52;;;6.85;49.31
24996;BME280;13016;52.162;21.034;2023-04-05T08:00:01;101030.71;;;6.95;48.91
24996;BME280;13016;52.162;21.034;2023-04-05T08:06:11;101033.05;;;6.93;49.09
24996;BME280;13016;52.162;21.034;2023-04-05T08:12:12;101038.05;;;6.96;48.80
24996;BME280;13016;52.162;21.034;2023-04-05T08:18:12;101041.59;;;7.23;48.90
24996;BME280;13016;52.162;21.034;2023-04-05T08:24:13;101036.48;;;7.24;47.99
24996;BME280;13016;52.162;21.034;2023-04-05T08:30:13;101040.47;;;7.01;48.17
24996;BME280;13016;52.162;21.034;2023-04-05T08:36:13;101040.62;;;6.62;49.17
24996;BME280;13016;52.162;21.034;2023-04-05T08:42:28;101041.13;;;6.87;48.03
24996;BME280;13016;52.162;21.034;2023-04-05T08:48:31;101041.88;;;6.86;48.23
24996;BME280;13016;52.162;21.034;2023-04-05T08:54:32;101039.51;;;7.18;48.13
24996;BME280;13016;52.162;21.034;2023-04-05T09:00:32;101039.56;;;7.49;47.31
24996;BME280;13016;52.162;21.034;2023-04-05T09:06:34;101045.98;;;7.47;46.26
24996;BME280;13016;52.162;21.034;2023-04-05T09:12:35;101038.09;;;7.47;45.92
24996;BME280;13016;52.162;21.034;2023-04-05T09:18:35;101036.88;;;7.28;46.19
24996;BME280;13016;52.162;21.034;2023-04-05T09:24:42;101037.85;;;7.34;45.57
24996;BME280;13016;52.162;21.034;2023-04-05T09:30:46;101037.36;;;7.42;45.81
24996;BME280;13016;52.162;21.034;2023-04-05T09:36:47;101028.25;;;7.60;44.01
24996;BME280;13016;52.162;21.034;2023-04-05T09:42:47;101031.88;;;7.71;44.07
24996;BME280;13016;52.162;21.034;2023-04-05T09:48:48;101029.80;;;7.79;42.96
24996;BME280;13016;52.162;21.034;2023-04-05T09:54:51;101031.23;;;7.74;41.40
24996;BME280;13016;52.162;21.034;2023-04-05T10:00:52;101035.70;;;7.72;42.20
24996;BME280;13016;52.162;21.034;2023-04-05T10:06:52;101032.83;;;7.78;43.17
24996;BME280;13016;52.162;21.034;2023-04-05T10:12:53;101033.16;;;7.74;43.55
24996;BME280;13016;52.162;21.034;2023-04-05T10:18:54;101032.13;;;7.87;43.17
24996;BME280;13016;52.162;21.034;2023-04-05T10:25:00;101031.45;;;7.99;42.29
24996;BME280;13016;52.162;21.034;2023-04-05T10:37:37;101034.17;;;8.15;41.65
24996;BME280;13016;52.162;21.034;2023-04-05T10:43:40;101033.11;;;8.15;41.05
24996;BME280;13016;52.162;21.034;2023-04-05T10:49:48;101029.62;;;8.19;41.14
24996;BME280;13016;52.162;21.034;2023-04-05T10:55:53;101023.02;;;8.13;41.02
24996;BME280;13016;52.162;21.034;2023-04-05T11:01:55;101018.99;;;8.21;40.90
24996;BME280;13016;52.162;21.034;2023-04-05T11:08:00;101020.91;;;8.30;40.37
24996;BME280;13016;52.162;21.034;2023-04-05T11:20:16;101019.67;;;8.60;39.63
24996;BME280;13016;52.162;21.034;2023-04-05T11:26:16;101023.08;;;8.70;38.72
24996;BME280;13016;52.162;21.034;2023-04-05T11:32:16;101023.56;;;8.67;38.34
24996;BME280;13016;52.162;21.034;2023-04-05T11:38:22;101019.11;;;8.64;37.84
24996;BME280;13016;52.162;21.034;2023-04-05T11:44:23;101021.80;;;8.83;37.61
24996;BME280;13016;52.162;21.034;2023-04-05T11:50:24;101020.30;;;9.13;36.83
24996;BME280;13016;52.162;21.034;2023-04-05T11:56:24;101021.17;;;9.44;35.91
24996;BME280;13016;52.162;21.034;2023-04-05T12:02:24;101026.84;;;9.32;35.86
24996;BME280;13016;52.162;21.034;2023-04-05T12:08:42;101025.21;;;9.21;34.87
24996;BME280;13016;52.162;21.034;2023-04-05T12:14:42;101021.52;;;9.44;34.92
24996;BME280;13016;52.162;21.034;2023-04-05T12:20:43;101017.29;;;9.56;34.57
24996;BME280;13016;52.162;21.034;2023-04-05T12:26:43;101015.34;;;9.74;34.38
24996;BME280;13016;52.162;21.034;2023-04-05T12:32:52;101014.29;;;9.52;34.26
24996;BME280;13016;52.162;21.034;2023-04-05T12:38:53;101013.48;;;9.20;34.22
24996;BME280;13016;52.162;21.034;2023-04-05T12:45:23;101008.90;;;8.84;35.11
24996;BME280;13016;52.162;21.034;2023-04-05T12:51:23;101007.02;;;8.80;35.08
24996;BME280;13016;52.162;21.034;2023-04-05T12:57:33;101008.17;;;9.05;35.02
24996;BME280;13016;52.162;21.034;2023-04-05T13:03:33;101006.75;;;9.16;34.92
24996;BME280;13016;52.162;21.034;2023-04-05T13:09:33;101008.98;;;9.37;34.85
24996;BME280;13016;52.162;21.034;2023-04-05T13:15:34;101008.30;;;9.48;34.72
24996;BME280;13016;52.162;21.034;2023-04-05T13:21:34;101010.20;;;9.34;34.62
24996;BME280;13016;52.162;21.034;2023-04-05T13:27:34;101012.61;;;9.19;34.76
24996;BME280;13016;52.162;21.034;2023-04-05T13:33:34;101010.33;;;9.23;35.37
24996;BME280;13016;52.162;21.034;2023-04-05T13:39:35;101009.56;;;9.36;35.53
24996;BME280;13016;52.162;21.034;2023-04-05T13:45:35;101000.95;;;8.94;35.83
24996;BME280;13016;52.162;21.034;2023-04-05T13:51:36;101001.90;;;9.11;36.32
24996;BME280;13016;52.162;21.034;2023-04-05T13:57:36;100999.72;;;9.36;36.29
24996;BME280;13016;52.162;21.034;2023-04-05T14:03:36;100998.80;;;9.29;35.65
24996;BME280;13016;52.162;21.034;2023-04-05T14:09:36;100994.81;;;9.36;34.95
24996;BME280;13016;52.162;21.034;2023-04-05T14:15:37;100994.41;;;9.59;35.01
24996;BME280;13016;52.162;21.034;2023-04-05T14:21:37;100991.48;;;9.79;34.94
24996;BME280;13016;52.162;21.034;2023-04-05T14:27:38;100993.40;;;10.02;34.25
24996;BME280;13016;52.162;21.034;2023-04-05T14:33:38;100992.20;;;9.94;33.84
24996;BME280;13016;52.162;21.034;2023-04-05T14:39:39;100989.66;;;9.92;33.84
24996;BME280;13016;52.162;21.034;2023-04-05T14:45:39;100992.38;;;9.76;34.35
24996;BME280;13016;52.162;21.034;2023-04-05T14:51:39;100993.69;;;9.56;34.85
24996;BME280;13016;52.162;21.034;2023-04-05T14:57:40;101004.86;;;9.39;34.82
24996;BME280;13016;52.162;21.034;2023-04-05T15:03:40;101000.38;;;9.29;35.01
24996;BME280;13016;52.162;21.034;2023-04-05T15:09:50;101007.32;;;9.28;35.55
24996;BME280;13016;52.162;21.034;2023-04-05T15:15:50;101012.28;;;9.08;35.81
24996;BME280;13016;52.162;21.034;2023-04-05T15:21:50;101013.80;;;9.17;35.84
24996;BME280;13016;52.162;21.034;2023-04-05T15:27:51;101014.59;;;9.15;36.03
24996;BME280;13016;52.162;21.034;2023-04-05T15:33:51;101021.90;;;9.09;35.64
24996;BME280;13016;52.162;21.034;2023-04-05T15:39:51;101025.29;;;8.88;36.11
24996;BME280;13016;52.162;21.034;2023-04-05T15:45:52;101027.70;;;8.97;36.17
24996;BME280;13016;52.162;21.034;2023-04-05T15:51:52;101034.14;;;8.91;36.07
24996;BME280;13016;52.162;21.034;2023-04-05T15:57:52;101034.62;;;8.84;35.70
24996;BME280;13016;52.162;21.034;2023-04-05T16:03:52;101034.04;;;8.89;35.75
24996;BME280;13016;52.162;21.034;2023-04-05T16:09:53;101029.36;;;8.91;35.46
24996;BME280;13016;52.162;21.034;2023-04-05T16:15:53;101024.04;;;8.96;35.76
24996;BME280;13016;52.162;21.034;2023-04-05T16:21:54;101022.46;;;8.96;35.69
24996;BME280;13016;52.162;21.034;2023-04-05T16:27:54;101018.51;;;8.94;35.79
24996;BME280;13016;52.162;21.034;2023-04-05T16:33:54;101016.20;;;8.87;35.96
24996;BME280;13016;52.162;21.034;2023-04-05T16:39:55;101020.85;;;8.81;36.21
24996;BME280;13016;52.162;21.034;2023-04-05T16:45:55;101020.09;;;8.94;36.76
24996;BME280;13016;52.162;21.034;2023-04-05T16:51:55;101023.23;;;8.83;36.31
24996;BME280;13016;52.162;21.034;2023-04-05T16:57:55;101029.98;;;8.73;36.28
24996;BME280;13016;52.162;21.034;2023-04-05T17:03:56;101028.77;;;8.73;36.66
24996;BME280;13016;52.162;21.034;2023-04-05T17:09:56;101031.00;;;8.78;36.79
24996;BME280;13016;52.162;21.034;2023-04-05T17:15:56;101033.41;;;8.79;36.51
24996;BME280;13016;52.162;21.034;2023-04-05T17:21:56;101037.91;;;8.52;36.53
24996;BME280;13016;52.162;21.034;2023-04-05T17:27:57;101039.98;;;8.45;36.65
24996;BME280;13016;52.162;21.034;2023-04-05T17:33:58;101040.92;;;8.44;36.65
24996;BME280;13016;52.162;21.034;2023-04-05T17:39:58;101047.49;;;8.29;36.86
24996;BME280;13016;52.162;21.034;2023-04-05T17:45:58;101049.98;;;8.20;36.75
24996;BME280;13016;52.162;21.034;2023-04-05T17:51:59;101058.52;;;8.21;36.76
24996;BME280;13016;52.162;21.034;2023-04-05T17:57:59;101071.66;;;8.18;36.93
24996;BME280;13016;52.162;21.034;2023-04-05T18:03:59;101073.20;;;8.14;36.87
24996;BME280;13016;52.162;21.034;2023-04-05T18:09:59;101075.11;;;8.06;36.78
24996;BME280;13016;52.162;21.034;2023-04-05T18:16:00;101078.54;;;8.08;36.98
24996;BME280;13016;52.162;21.034;2023-04-05T18:22:00;101078.13;;;7.92;37.26
24996;BME280;13016;52.162;21.034;2023-04-05T18:28:00;101085.16;;;7.96;37.12
24996;BME280;13016;52.162;21.034;2023-04-05T18:34:00;101086.80;;;7.85;37.04
24996;BME280;13016;52.162;21.034;2023-04-05T18:40:02;101085.21;;;7.90;37.17
24996;BME280;13016;52.162;21.034;2023-04-05T18:46:03;101092.02;;;7.91;37.53
24996;BME280;13016;52.162;21.034;2023-04-05T18:52:03;101097.90;;;7.93;37.56
24996;BME280;13016;52.162;21.034;2023-04-05T18:58:03;101103.34;;;7.89;37.86
24996;BME280;13016;52.162;21.034;2023-04-05T19:04:04;101107.20;;;7.85;37.96
24996;BME280;13016;52.162;21.034;2023-04-05T19:10:05;101105.98;;;7.85;38.20
24996;BME280;13016;52.162;21.034;2023-04-05T19:16:05;101103.51;;;7.85;38.23
24996;BME280;13016;52.162;21.034;2023-04-05T19:22:05;101110.10;;;7.78;38.37
24996;BME280;13016;52.162;21.034;2023-04-05T19:28:06;101115.02;;;7.78;38.55
24996;BME280;13016;52.162;21.034;2023-04-05T19:34:06;101113.62;;;7.87;38.70
24996;BME280;13016;52.162;21.034;2023-04-05T19:40:07;101114.20;;;7.95;38.66
24996;BME280;13016;52.162;21.034;2023-04-05T19:46:08;101115.64;;;7.85;38.88
24996;BME280;13016;52.162;21.034;2023-04-05T19:52:11;101113.42;;;7.92;39.12
24996;BME280;13016;52.162;21.034;2023-04-05T19:58:25;101115.94;;;7.86;38.85
24996;BME280;13016;52.162;21.034;2023-04-05T20:04:26;101111.55;;;7.72;38.72
24996;BME280;13016;52.162;21.034;2023-04-05T20:10:39;101107.55;;;7.71;38.79
24996;BME280;13016;52.162;21.034;2023-04-05T20:16:40;101102.02;;;7.69;38.33
24996;BME280;13016;52.162;21.034;2023-04-05T20:22:40;101096.02;;;7.74;38.00
24996;BME280;13016;52.162;21.034;2023-04-05T20:28:50;101095.41;;;7.76;37.37
24996;BME280;13016;52.162;21.034;2023-04-05T20:34:51;101091.89;;;7.81;37.35
24996;BME280;13016;52.162;21.034;2023-04-05T20:40:51;101093.38;;;7.70;37.10
24996;BME280;13016;52.162;21.034;2023-04-05T20:46:52;101089.68;;;7.56;37.23
24996;BME280;13016;52.162;21.034;2023-04-05T20:52:53;101086.27;;;7.72;37.23
24996;BME280;13016;52.162;21.034;2023-04-05T20:58:53;101087.14;;;7.63;37.46
24996;BME280;13016;52.162;21.034;2023-04-05T21:04:53;101091.23;;;7.71;37.29
24996;BME280;13016;52.162;21.034;2023-04-05T21:10:54;101082.94;;;7.72;37.33
24996;BME280;13016;52.162;21.034;2023-04-05T21:16:55;101079.20;;;7.87;37.85
24996;BME280;13016;52.162;21.034;2023-04-05T21:22:56;101085.27;;;7.89;37.70
24996;BME280;13016;52.162;21.034;2023-04-05T21:28:56;101085.05;;;7.81;37.28
24996;BME280;13016;52.162;21.034;2023-04-05T21:34:56;101079.20;;;7.78;37.65
24996;BME280;13016;52.162;21.034;2023-04-05T21:40:57;101078.39;;;7.85;37.63
24996;BME280;13016;52.162;21.034;2023-04-05T21:46:57;101070.97;;;7.86;37.51
24996;BME280;13016;52.162;21.034;2023-04-05T21:52:57;101068.27;;;7.92;37.67
24996;BME280;13016;52.162;21.034;2023-04-05T21:58:58;101067.01;;;7.84;37.60
24996;BME280;13016;52.162;21.034;2023-04-05T22:04:58;101063.44;;;7.90;37.83
24996;BME280;13016;52.162;21.034;2023-04-05T22:10:59;101057.77;;;7.91;37.82
24996;BME280;13016;52.162;21.034;2023-04-05T22:16:59;101058.89;;;7.89;37.58
24996;BME280;13016;52.162;21.034;2023-04-05T22:22:59;101053.98;;;7.89;37.50
24996;BME280;13016;52.162;21.034;2023-04-05T22:29:00;101049.77;;;7.80;37.55
24996;BME280;13016;52.162;21.034;2023-04-05T22:35:01;101045.46;;;7.87;37.83
24996;BME280;13016;52.162;21.034;2023-04-05T22:41:01;101047.28;;;7.81;37.25
24996;BME280;13016;52.162;21.034;2023-04-05T22:47:02;101042.48;;;7.69;36.91
24996;BME280;13016;52.162;21.034;2023-04-05T22:53:02;101041.38;;;7.75;37.14
24996;BME280;13016;52.162;21.034;2023-04-05T22:59:03;101038.10;;;7.82;37.05
24996;BME280;13016;52.162;21.034;2023-04-05T23:05:03;101037.14;;;7.67;37.03
24996;BME280;13016;52.162;21.034;2023-04-05T23:11:03;101035.30;;;7.51;36.66
24996;BME280;13016;52.162;21.034;2023-04-05T23:17:04;101029.33;;;7.46;36.75
24996;BME280;13016;52.162;21.034;2023-04-05T23:23:04;101026.70;;;7.46;37.09
24996;BME280;13016;52.162;21.034;2023-04-05T23:29:04;101028.41;;;7.52;37.10
24996;BME280;13016;52.162;21.034;2023-04-05T23:35:05;101023.48;;;7.52;37.24
24996;BME280;13016;52.162;21.034;2023-04-05T23:41:05;101013.82;;;7.52;37.11
24996;BME280;13016;52.162;21.034;2023-04-05T23:47:06;101015.15;;;7.54;37.27
24996;BME280;13016;52.162;21.034;2023-04-05T23:53:06;101011.63;;;7.59;37.19
24996;BME280;13016;52.162;21.034;2023-04-05T23:59:06;101010.12;;;7.66;37.56
